Time;durP1;ratioP1;P1;durP2;ratioP2;P2;SDS_P1;SDS_P2;PMS_P1;PMS_P2;Temp;Humidity;BMP_temperature;BMP_pressure;BME280_temperature;BME280_humidity;BME280_pressure;Samples;Min_cycle;Max_cycle;Signal;HPM_P1;HPM_P2
2022/10/09 00:00:39;;;;;;;5.72;1.38;;;11.20;99.80;;;;;;5140631;27;20344;-75
2022/10/09 00:03:05;;;;;;;4.38;1.52;;;11.20;99.80;;;;;;5139867;27;20041;-75
2022/10/09 00:05:31;;;;;;;7.78;1.95;;;11.10;99.70;;;;;;5139555;27;20328;-75
2022/10/09 00:07:57;;;;;;;6.88;1.50;;;11.10;99.70;;;;;;5140765;27;20122;-75
2022/10/09 00:10:22;;;;;;;5.50;1.58;;;11.00;99.60;;;;;;5139756;27;20084;-75
2022/10/09 00:12:48;;;;;;;6.63;1.55;;;11.00;99.70;;;;;;5140635;27;20046;-76
2022/10/09 00:15:14;;;;;;;6.45;1.40;;;11.00;99.80;;;;;;5140318;27;20053;-76
2022/10/09 00:17:40;;;;;;;6.10;1.58;;;11.00;99.80;;;;;;5138884;27;20314;-76
2022/10/09 00:20:06;;;;;;;7.28;1.73;;;11.10;99.80;;;;;;5139215;27;20074;-76
2022/10/09 00:22:32;;;;;;;7.72;1.67;;;11.00;99.70;;;;;;5139143;27;20052;-75
2022/10/09 00:24:57;;;;;;;4.22;1.65;;;11.00;99.70;;;;;;5139451;27;20035;-75
2022/10/09 00:27:23;;;;;;;10.40;2.05;;;11.00;99.70;;;;;;5138941;27;20039;-75
2022/10/09 00:29:50;;;;;;;6.40;1.35;;;10.90;99.70;;;;;;5140251;27;20039;-75
2022/10/09 00:32:16;;;;;;;6.60;1.90;;;10.90;99.70;;;;;;5140323;27;20043;-75
2022/10/09 00:34:42;;;;;;;3.33;1.33;;;10.90;99.70;;;;;;5139948;27;20039;-76
2022/10/09 00:37:08;;;;;;;3.28;1.50;;;10.90;99.80;;;;;;5139166;27;20046;-75
2022/10/09 00:39:34;;;;;;;3.00;1.23;;;10.90;99.70;;;;;;5140214;27;20043;-75
2022/10/09 00:42:00;;;;;;;5.55;1.30;;;10.90;99.70;;;;;;5139158;27;20336;-75
2022/10/09 00:44:47;;;;;;;3.78;1.23;;;10.90;99.60;;;;;;5139765;27;20078;-75
2022/10/09 00:47:26;;;;;;;5.80;1.20;;;10.90;99.70;;;;;;5138662;27;20075;-75
2022/10/09 00:49:57;;;;;;;2.90;0.95;;;10.90;99.70;;;;;;5140060;27;20200;-75
2022/10/09 00:52:24;;;;;;;5.20;1.35;;;10.90;99.60;;;;;;5140004;27;20042;-75
2022/10/09 00:54:52;;;;;;;3.05;1.10;;;10.90;99.50;;;;;;5138923;27;20031;-75
2022/10/09 00:57:17;;;;;;;4.68;1.52;;;10.80;99.70;;;;;;5139783;27;20042;-75
2022/10/09 00:59:43;;;;;;;3.22;1.30;;;10.70;99.60;;;;;;5138820;27;20043;-75
2022/10/09 01:02:09;;;;;;;4.07;1.40;;;10.70;99.70;;;;;;5138409;27;20043;-75
2022/10/09 01:04:35;;;;;;;3.53;1.20;;;10.70;99.70;;;;;;5138726;27;20054;-75
2022/10/09 01:07:13;;;;;;;8.73;1.50;;;10.70;99.80;;;;;;5137996;27;20485;-75
2022/10/09 01:10:23;;;;;;;4.47;0.90;;;10.80;99.80;;;;;;5138530;27;20039;-75
2022/10/09 01:13:01;;;;;;;3.28;1.05;;;10.70;99.70;;;;;;5117653;27;20082;-75
2022/10/09 01:15:43;;;;;;;2.03;0.95;;;10.80;99.90;;;;;;5138169;27;20069;-76
2022/10/09 01:18:32;;;;;;;4.72;1.25;;;10.80;99.70;;;;;;5137766;27;20066;-76
2022/10/09 01:21:14;;;;;;;5.28;1.48;;;10.80;99.70;;;;;;5138066;27;20046;-75
2022/10/09 01:24:18;;;;;;;7.20;1.88;;;10.70;99.70;;;;;;5139525;27;20031;-75
2022/10/09 01:27:07;;;;;;;3.75;1.35;;;10.80;99.80;;;;;;5138909;27;20497;-75
2022/10/09 01:29:37;;;;;;;4.30;1.67;;;10.80;99.90;;;;;;5138098;27;20428;-76
2022/10/09 01:32:06;;;;;;;7.88;1.60;;;10.90;99.80;;;;;;5139427;27;20070;-75
2022/10/09 01:34:32;;;;;;;9.15;2.28;;;10.90;99.70;;;;;;5139127;27;20035;-75
2022/10/09 01:36:59;;;;;;;7.07;2.05;;;10.90;99.60;;;;;;5138743;27;20039;-75
2022/10/09 01:39:26;;;;;;;3.83;1.40;;;11.00;99.70;;;;;;5138042;27;20075;-75
2022/10/09 01:41:53;;;;;;;5.03;1.55;;;11.00;99.60;;;;;;5120660;27;20043;-75
2022/10/09 01:44:22;;;;;;;8.48;2.03;;;10.90;99.40;;;;;;5137403;27;20059;-75
2022/10/09 01:46:48;;;;;;;5.40;1.48;;;10.80;99.40;;;;;;5138804;27;20350;-75
2022/10/09 01:49:38;;;;;;;7.63;1.40;;;10.70;99.50;;;;;;5137444;27;20040;-75
2022/10/09 01:52:41;;;;;;;8.07;1.50;;;10.60;99.60;;;;;;5137449;27;20035;-75
2022/10/09 01:55:33;;;;;;;4.65;1.38;;;10.60;99.70;;;;;;5137718;27;20046;-75
2022/10/09 01:58:23;;;;;;;8.27;2.20;;;10.50;99.70;;;;;;5138674;27;20042;-75
2022/10/09 02:01:04;;;;;;;4.18;1.33;;;10.50;99.80;;;;;;5137235;27;20039;-76
2022/10/09 02:03:32;;;;;;;4.63;1.50;;;10.50;99.70;;;;;;5137880;27;20031;-75
2022/10/09 02:06:00;;;;;;;3.03;1.60;;;10.40;99.70;;;;;;5138441;27;20057;-75
2022/10/09 02:08:28;;;;;;;5.63;1.75;;;10.40;99.70;;;;;;5137104;27;20043;-76
2022/10/09 02:10:57;;;;;;;3.33;1.55;;;10.30;99.70;;;;;;5137101;27;20038;-76
2022/10/09 02:13:23;;;;;;;3.63;1.40;;;10.40;99.70;;;;;;5138110;27;20420;-75
2022/10/09 02:15:55;;;;;;;8.40;1.95;;;10.40;99.70;;;;;;5137981;27;20050;-76
2022/10/09 02:18:32;;;;;;;4.93;1.52;;;10.30;99.70;;;;;;5137273;27;20043;-76
2022/10/09 02:21:05;;;;;;;4.50;1.55;;;10.40;99.80;;;;;;5138285;27;20032;-75
2022/10/09 02:23:33;;;;;;;3.45;1.40;;;10.40;99.80;;;;;;5138121;27;20329;-75
2022/10/09 02:25:59;;;;;;;5.78;1.90;;;10.50;99.70;;;;;;5137100;27;20057;-75
2022/10/09 02:28:25;;;;;;;7.47;2.08;;;10.40;99.70;;;;;;5119657;27;20035;-76
2022/10/09 02:31:02;;;;;;;6.10;1.80;;;10.50;99.70;;;;;;5136769;27;20103;-75
2022/10/09 02:33:32;;;;;;;5.32;1.88;;;10.60;99.80;;;;;;5136787;27;20035;-75
2022/10/09 02:35:58;;;;;;;5.00;1.77;;;10.50;99.50;;;;;;5138014;27;20332;-76
2022/10/09 02:38:24;;;;;;;4.93;1.70;;;10.40;99.50;;;;;;5138028;27;20043;-76
2022/10/09 02:40:50;;;;;;;4.25;1.95;;;10.40;99.60;;;;;;5138068;27;20107;-75
2022/10/09 02:43:15;;;;;;;5.63;1.77;;;10.30;99.60;;;;;;5137513;27;20078;-75
2022/10/09 02:45:42;;;;;;;6.30;2.05;;;10.30;99.70;;;;;;5137450;27;20054;-75
2022/10/09 02:48:08;;;;;;;4.15;1.60;;;10.30;99.70;;;;;;5136153;27;20031;-75
2022/10/09 02:50:35;;;;;;;6.15;2.03;;;10.30;99.70;;;;;;5119360;28;20091;-75
2022/10/09 02:53:00;;;;;;;6.47;2.35;;;10.30;99.60;;;;;;5137816;27;20035;-75
2022/10/09 02:55:26;;;;;;;5.57;2.20;;;10.20;99.60;;;;;;5119371;28;20046;-75
2022/10/09 02:57:51;;;;;;;5.07;2.50;;;10.40;99.80;;;;;;5137448;28;20165;-75
2022/10/09 03:00:17;;;;;;;3.15;1.92;;;10.40;99.70;;;;;;5137782;28;20035;-75
2022/10/09 03:02:43;;;;;;;9.88;2.25;;;10.50;99.80;;;;;;5137481;28;20027;-75
2022/10/09 03:05:09;;;;;;;5.97;2.40;;;10.40;99.70;;;;;;5119732;28;20433;-75
2022/10/09 03:07:35;;;;;;;6.28;2.03;;;10.40;99.50;;;;;;5137594;28;20043;-75
2022/10/09 03:10:00;;;;;;;5.95;2.17;;;10.40;99.50;;;;;;5137649;28;20039;-75
2022/10/09 03:12:26;;;;;;;5.47;2.00;;;10.30;99.40;;;;;;5136666;28;20122;-75
2022/10/09 03:14:51;;;;;;;6.95;2.10;;;10.20;99.60;;;;;;5136679;28;20381;-76
2022/10/09 03:17:17;;;;;;;7.20;2.25;;;10.30;99.60;;;;;;5119557;28;20100;-76
2022/10/09 03:19:43;;;;;;;7.07;2.67;;;10.20;99.60;;;;;;5137131;28;20118;-76
2022/10/09 03:22:08;;;;;;;6.32;2.05;;;10.10;99.50;;;;;;5136244;28;20043;-75
2022/10/09 03:24:34;;;;;;;9.77;2.20;;;10.00;99.60;;;;;;5137884;28;20080;-75
2022/10/09 03:27:00;;;;;;;3.97;2.30;;;10.00;99.70;;;;;;5136091;28;20043;-75
2022/10/09 03:29:25;;;;;;;7.10;2.40;;;9.90;99.70;;;;;;5136231;27;20039;-75
2022/10/09 03:31:51;;;;;;;5.28;2.20;;;9.90;99.70;;;;;;5140991;27;20035;-76
2022/10/09 03:34:16;;;;;;;9.75;3.25;;;9.90;99.80;;;;;;5140109;27;20035;-76
2022/10/09 03:36:42;;;;;;;7.72;3.42;;;10.00;99.80;;;;;;5141591;27;20046;-75
2022/10/09 03:39:08;;;;;;;8.18;3.65;;;10.00;99.70;;;;;;5140403;27;20039;-76
2022/10/09 03:41:34;;;;;;;6.68;2.47;;;10.10;99.80;;;;;;5141249;27;20039;-75
2022/10/09 03:43:59;;;;;;;11.13;3.83;;;10.10;99.80;;;;;;5140001;27;20356;-75
2022/10/09 03:46:25;;;;;;;5.65;2.90;;;10.20;99.80;;;;;;5139989;27;20436;-75
2022/10/09 03:48:51;;;;;;;5.93;2.70;;;10.20;99.80;;;;;;5174505;27;20374;-75
2022/10/09 03:51:16;;;;;;;8.00;2.90;;;10.30;99.70;;;;;;5140148;27;20366;-75
2022/10/09 03:53:42;;;;;;;6.38;2.80;;;10.30;99.70;;;;;;5140934;27;20320;-75
2022/10/09 03:56:07;;;;;;;7.55;3.17;;;10.20;99.70;;;;;;5141028;27;20524;-75
2022/10/09 03:58:33;;;;;;;9.90;2.67;;;10.10;99.60;;;;;;5122802;27;20126;-75
2022/10/09 04:00:59;;;;;;;7.57;3.00;;;10.10;99.80;;;;;;5140000;27;20042;-75
2022/10/09 04:03:26;;;;;;;12.80;4.43;;;10.10;99.80;;;;;;5139831;27;20043;-75
2022/10/09 04:05:52;;;;;;;4.80;2.97;;;10.20;99.70;;;;;;5140750;27;20047;-75
2022/10/09 04:08:17;;;;;;;8.00;3.25;;;10.20;99.80;;;;;;5140804;27;20091;-76
2022/10/09 04:10:43;;;;;;;9.35;3.63;;;10.20;99.60;;;;;;5140730;27;20038;-75
2022/10/09 04:13:09;;;;;;;6.60;3.10;;;10.10;99.50;;;;;;5140704;27;20085;-75
2022/10/09 04:15:35;;;;;;;6.03;2.78;;;10.00;99.60;;;;;;5122195;27;20035;-76
2022/10/09 04:18:01;;;;;;;5.93;3.00;;;10.00;99.80;;;;;;5140215;27;20328;-76
2022/10/09 04:20:27;;;;;;;4.88;2.78;;;10.00;99.60;;;;;;5140540;27;20038;-75
2022/10/09 04:22:52;;;;;;;9.20;4.00;;;10.00;99.70;;;;;;5140483;27;20027;-75
2022/10/09 04:25:18;;;;;;;6.57;3.50;;;10.00;99.70;;;;;;5140118;27;20074;-75
2022/10/09 04:27:44;;;;;;;6.78;3.47;;;9.90;99.70;;;;;;5122257;27;20126;-75
2022/10/09 04:30:10;;;;;;;7.78;3.20;;;10.00;99.70;;;;;;5139169;27;20043;-75
2022/10/09 04:32:35;;;;;;;12.00;5.35;;;10.00;99.70;;;;;;5132360;27;20043;-76
2022/10/09 04:35:01;;;;;;;7.72;3.50;;;10.10;99.80;;;;;;5171959;27;20066;-76
2022/10/09 04:37:27;;;;;;;8.10;4.22;;;10.10;99.70;;;;;;5139298;27;20344;-76
2022/10/09 04:39:52;;;;;;;8.73;3.78;;;10.10;99.70;;;;;;5138825;27;20374;-75
2022/10/09 04:42:18;;;;;;;9.02;3.72;;;10.00;99.60;;;;;;5138283;27;20074;-75
2022/10/09 04:44:43;;;;;;;6.38;3.80;;;10.00;99.50;;;;;;5139737;27;20082;-75
2022/10/09 04:47:09;;;;;;;7.85;3.70;;;10.00;99.60;;;;;;5139975;27;20043;-75
2022/10/09 04:49:35;;;;;;;6.63;3.72;;;9.90;99.70;;;;;;5120734;27;20043;-75
2022/10/09 04:52:00;;;;;;;9.93;4.60;;;9.90;99.70;;;;;;5139658;27;20031;-75
2022/10/09 04:54:26;;;;;;;8.18;3.90;;;9.90;99.60;;;;;;5139624;27;20087;-75
2022/10/09 04:56:52;;;;;;;6.85;4.07;;;9.80;99.60;;;;;;5138345;27;20388;-75
2022/10/09 04:59:17;;;;;;;6.35;4.10;;;9.70;99.50;;;;;;5139477;27;20039;-75
2022/10/09 05:01:43;;;;;;;7.00;4.38;;;9.70;99.70;;;;;;5138433;27;20046;-75
2022/10/09 05:04:09;;;;;;;8.13;4.55;;;9.70;99.80;;;;;;5139221;27;20420;-75
2022/10/09 05:06:34;;;;;;;10.63;5.03;;;9.80;99.80;;;;;;5121559;27;20039;-75
2022/10/09 05:09:00;;;;;;;8.13;4.50;;;9.80;99.70;;;;;;5155518;27;20438;-76
2022/10/09 05:11:26;;;;;;;12.45;5.15;;;9.90;99.90;;;;;;5173209;27;20061;-75
2022/10/09 05:13:54;;;;;;;10.57;5.45;;;9.90;99.70;;;;;;5121123;27;20035;-76
2022/10/09 05:16:23;;;;;;;12.50;5.38;;;9.90;99.70;;;;;;5139471;27;20374;-76
2022/10/09 05:18:52;;;;;;;16.25;7.28;;;10.00;99.70;;;;;;5172388;27;20043;-76
2022/10/09 05:21:19;;;;;;;12.73;7.53;;;10.00;99.60;;;;;;5138121;27;20074;-75
2022/10/09 05:23:45;;;;;;;10.05;6.13;;;10.00;99.70;;;;;;5120895;27;20042;-75
2022/10/09 05:26:12;;;;;;;16.90;7.80;;;10.00;99.80;;;;;;5137858;27;20039;-76
2022/10/09 05:28:38;;;;;;;15.38;6.88;;;10.00;99.60;;;;;;5139260;27;20369;-75
2022/10/09 05:31:05;;;;;;;15.82;6.63;;;10.00;99.80;;;;;;5137858;27;20035;-75
2022/10/09 05:33:32;;;;;;;12.43;6.40;;;10.00;99.70;;;;;;5139112;27;20038;-76
2022/10/09 05:36:04;;;;;;;11.75;6.05;;;10.00;99.60;;;;;;5138799;27;20039;-75
2022/10/09 05:38:30;;;;;;;10.13;5.47;;;10.00;99.50;;;;;;5137973;27;20051;-75
2022/10/09 05:40:59;;;;;;;11.38;5.72;;;9.90;99.50;;;;;;5138630;27;20043;-75
2022/10/09 05:43:27;;;;;;;12.10;6.15;;;9.80;99.50;;;;;;5138678;27;20038;-75
2022/10/09 05:45:53;;;;;;;10.27;4.90;;;9.80;99.70;;;;;;5137590;27;20463;-75
2022/10/09 05:48:21;;;;;;;8.55;4.88;;;9.80;99.60;;;;;;5137140;27;20071;-75
2022/10/09 05:50:47;;;;;;;9.45;5.70;;;9.80;99.50;;;;;;5137801;27;20039;-75
2022/10/09 05:53:13;;;;;;;10.68;5.63;;;9.70;99.60;;;;;;5137844;27;20032;-75
2022/10/09 05:55:39;;;;;;;12.32;5.53;;;9.80;99.90;;;;;;5138666;27;20361;-75
2022/10/09 05:58:05;;;;;;;10.82;5.30;;;9.80;99.70;;;;;;5137309;27;20035;-75
2022/10/09 06:00:31;;;;;;;12.82;6.25;;;9.80;99.60;;;;;;5137660;27;20043;-75
2022/10/09 06:02:56;;;;;;;10.15;5.20;;;9.80;99.60;;;;;;5138526;27;20080;-75
2022/10/09 06:05:22;;;;;;;12.93;4.97;;;9.70;99.60;;;;;;5119984;27;20082;-75
2022/10/09 06:07:48;;;;;;;12.77;6.18;;;9.80;99.60;;;;;;5138048;27;20039;-72
2022/10/09 06:10:14;;;;;;;9.23;5.47;;;9.70;99.70;;;;;;5138707;27;20031;-74
2022/10/09 06:12:39;;;;;;;12.00;6.68;;;9.80;99.80;;;;;;5138941;27;20095;-72
2022/10/09 06:15:05;;;;;;;12.75;6.10;;;9.80;99.80;;;;;;5138347;27;20035;-72
2022/10/09 06:17:32;;;;;;;13.57;6.35;;;9.90;99.90;;;;;;5138292;27;20168;-72
2022/10/09 06:19:58;;;;;;;11.07;5.20;;;9.90;99.90;;;;;;5137906;27;20054;-71
2022/10/09 06:22:24;;;;;;;8.85;4.65;;;10.00;99.80;;;;;;5137281;27;20043;-71
2022/10/09 06:24:49;;;;;;;12.43;5.18;;;9.90;99.50;;;;;;5138232;27;20091;-71
2022/10/09 06:27:15;;;;;;;9.07;5.47;;;9.80;99.60;;;;;;5138044;27;20039;-70
2022/10/09 06:29:40;;;;;;;11.63;5.53;;;9.80;99.70;;;;;;5138140;27;20447;-71
2022/10/09 06:32:06;;;;;;;13.38;5.60;;;9.80;99.60;;;;;;5138072;27;20123;-71
2022/10/09 06:34:32;;;;;;;15.38;7.53;;;9.80;99.60;;;;;;5138056;27;20060;-71
2022/10/09 06:36:57;;;;;;;21.70;11.82;;;9.80;99.60;;;;;;5137971;27;20416;-71
2022/10/09 06:39:25;;;;;;;20.60;12.20;;;9.80;99.70;;;;;;5136660;27;20035;-71
2022/10/09 06:41:51;;;;;;;26.35;14.82;;;9.90;99.90;;;;;;5137713;27;20079;-71
2022/10/09 06:44:17;;;;;;;32.22;17.70;;;10.00;99.80;;;;;;5137663;27;20091;-71
2022/10/09 06:46:44;;;;;;;41.80;20.20;;;10.10;99.80;;;;;;5136689;27;20137;-71
2022/10/09 06:49:10;;;;;;;36.55;19.02;;;10.20;99.80;;;;;;5137493;27;20036;-71
2022/10/09 06:51:36;;;;;;;28.73;17.85;;;10.30;99.80;;;;;;5138023;27;20088;-71
2022/10/09 06:54:08;;;;;;;28.30;16.25;;;10.30;99.80;;;;;;5137829;27;20031;-71
2022/10/09 06:56:34;;;;;;;25.45;14.75;;;10.30;99.80;;;;;;5137854;27;20043;-71
2022/10/09 06:59:02;;;;;;;31.05;16.98;;;10.30;99.80;;;;;;5136866;28;20043;-71
2022/10/09 07:01:30;;;;;;;21.10;13.30;;;10.30;99.90;;;;;;5137784;27;20345;-72
2022/10/09 07:04:05;;;;;;;21.92;13.68;;;10.30;99.90;;;;;;5138131;27;20051;-71
2022/10/09 07:06:33;;;;;;;21.98;12.98;;;10.30;99.90;;;;;;5141968;27;20038;-71
2022/10/09 07:09:01;;;;;;;17.27;10.38;;;10.30;99.90;;;;;;5141980;27;20035;-71
2022/10/09 07:11:29;;;;;;;22.25;11.07;;;10.40;99.90;;;;;;5141616;27;20420;-72
2022/10/09 07:13:57;;;;;;;15.55;9.27;;;10.40;99.90;;;;;;5141618;27;20043;-77
2022/10/09 07:16:26;;;;;;;19.70;8.93;;;10.40;99.90;;;;;;5141844;27;20047;-70
2022/10/09 07:18:53;;;;;;;13.98;8.43;;;10.50;99.90;;;;;;5141448;27;20397;-71
2022/10/09 07:21:18;;;;;;;15.18;8.35;;;10.50;99.90;;;;;;5141772;27;20043;-71
2022/10/09 07:23:44;;;;;;;13.73;7.32;;;10.60;99.90;;;;;;5141379;27;20065;-71
2022/10/09 07:26:14;;;;;;;20.17;9.00;;;10.60;99.90;;;;;;5141541;27;20035;-71
2022/10/09 07:28:41;;;;;;;12.05;6.68;;;10.60;99.90;;;;;;5141605;27;20324;-70
2022/10/09 07:31:06;;;;;;;14.13;6.75;;;10.60;99.90;;;;;;5141556;27;20114;-71
2022/10/09 07:33:32;;;;;;;13.60;6.22;;;10.60;99.90;;;;;;5141446;27;20081;-70
2022/10/09 07:36:00;;;;;;;14.43;7.53;;;10.60;99.90;;;;;;5141096;27;20039;-70
2022/10/09 07:38:27;;;;;;;13.55;5.40;;;10.70;99.90;;;;;;5141408;27;20047;-71
2022/10/09 07:40:53;;;;;;;12.02;5.43;;;10.70;99.90;;;;;;5141057;27;20050;-72
2022/10/09 07:43:20;;;;;;;8.70;5.00;;;10.80;99.90;;;;;;5141997;27;20039;-72
2022/10/09 07:45:46;;;;;;;9.57;5.13;;;11.00;99.90;;;;;;5142061;27;20179;-70
2022/10/09 07:48:12;;;;;;;13.27;6.40;;;11.10;99.90;;;;;;5140889;27;20038;-70
2022/10/09 07:50:38;;;;;;;11.32;5.35;;;11.00;99.90;;;;;;5140841;27;20041;-71
2022/10/09 07:53:04;;;;;;;10.50;5.97;;;11.10;99.90;;;;;;5141100;27;20039;-70
2022/10/09 07:55:30;;;;;;;12.10;5.35;;;11.10;99.90;;;;;;5141019;27;20164;-70
2022/10/09 07:57:55;;;;;;;11.98;5.43;;;11.30;99.90;;;;;;5140999;27;20039;-71
2022/10/09 08:00:21;;;;;;;13.15;5.45;;;11.40;99.90;;;;;;5140942;27;20038;-70
2022/10/09 08:02:47;;;;;;;11.48;4.90;;;11.40;99.90;;;;;;5139687;27;20050;-71
2022/10/09 08:05:12;;;;;;;10.57;4.88;;;11.50;99.90;;;;;;5140893;27;20035;-71
2022/10/09 08:07:38;;;;;;;10.27;4.43;;;11.60;99.90;;;;;;5140330;27;20134;-70
2022/10/09 08:10:04;;;;;;;9.82;5.15;;;11.70;99.90;;;;;;5140783;27;20039;-70
2022/10/09 08:12:31;;;;;;;9.85;4.57;;;11.90;99.90;;;;;;5140719;27;20039;-72
2022/10/09 08:14:57;;;;;;;14.02;5.47;;;11.90;99.90;;;;;;5140448;27;20027;-70
2022/10/09 08:17:23;;;;;;;11.32;4.88;;;12.00;99.90;;;;;;5139655;27;20043;-71
2022/10/09 08:19:48;;;;;;;12.85;4.55;;;12.00;99.90;;;;;;5140166;27;20039;-71
2022/10/09 08:22:14;;;;;;;14.82;5.10;;;11.90;99.90;;;;;;5140259;27;20126;-70
2022/10/09 08:24:39;;;;;;;12.63;5.32;;;11.90;99.90;;;;;;5140466;27;20078;-70
2022/10/09 08:27:05;;;;;;;13.63;5.40;;;11.90;99.90;;;;;;5140390;27;20418;-70
2022/10/09 08:29:32;;;;;;;9.18;5.05;;;12.00;99.90;;;;;;5139257;27;20476;-71
2022/10/09 08:31:57;;;;;;;12.13;5.15;;;12.00;99.90;;;;;;5140384;27;20091;-71
2022/10/09 08:34:23;;;;;;;9.35;5.63;;;11.90;99.90;;;;;;5140326;27;20035;-71
2022/10/09 08:36:49;;;;;;;12.70;5.57;;;12.10;99.90;;;;;;5140313;27;20054;-72
2022/10/09 08:39:15;;;;;;;13.63;5.70;;;12.10;99.90;;;;;;5140224;27;20043;-72
2022/10/09 08:41:51;;;;;;;11.77;5.10;;;12.00;99.90;;;;;;5140182;27;20049;-74
2022/10/09 08:44:26;;;;;;;6.85;3.22;;;12.10;99.90;;;;;;5138965;27;20063;-76
2022/10/09 08:47:05;;;;;;;8.27;3.30;;;12.20;99.90;;;;;;5140036;27;20066;-83
2022/10/09 08:49:46;;;;;;;7.68;3.20;;;12.30;99.90;;;;;;5139334;27;20416;-78
2022/10/09 08:52:33;;;;;;;10.75;3.92;;;12.50;99.90;;;;;;5140013;27;20122;-71
2022/10/09 08:55:06;;;;;;;11.02;5.13;;;12.60;99.90;;;;;;5140073;27;20039;-73
2022/10/09 08:57:33;;;;;;;8.98;5.05;;;12.80;99.90;;;;;;5138705;27;20119;-73
2022/10/09 08:59:59;;;;;;;16.10;5.18;;;12.80;99.90;;;;;;5139793;27;20088;-73
2022/10/09 09:02:30;;;;;;;14.85;4.82;;;13.00;99.90;;;;;;5139748;27;20039;-72
2022/10/09 09:05:33;;;;;;;8.32;4.53;;;12.80;99.90;;;;;;5139645;27;20127;-72
2022/10/09 09:08:21;;;;;;;9.68;4.20;;;13.00;99.90;;;;;;5139905;27;20066;-71
2022/10/09 09:11:21;;;;;;;14.40;4.30;;;13.10;99.90;;;;;;5139518;27;20083;-70
2022/10/09 09:13:49;;;;;;;11.10;4.10;;;13.30;99.90;;;;;;5118554;27;20058;-72
2022/10/09 09:16:21;;;;;;;9.23;3.38;;;13.30;99.90;;;;;;5139414;27;20047;-71
2022/10/09 09:18:52;;;;;;;8.88;3.20;;;13.40;99.90;;;;;;5139024;27;20035;-72
2022/10/09 09:21:53;;;;;;;12.93;3.33;;;13.50;99.90;;;;;;5139411;27;20121;-72
2022/10/09 09:24:23;;;;;;;12.48;3.50;;;13.60;99.90;;;;;;5075757;28;20041;-70
2022/10/09 09:26:52;;;;;;;9.20;2.92;;;13.60;99.90;;;;;;5123225;27;20055;-77
2022/10/09 09:29:22;;;;;;;8.40;3.05;;;13.60;99.90;;;;;;5137878;27;20064;-71
2022/10/09 09:31:53;;;;;;;12.27;3.45;;;13.50;99.90;;;;;;5137755;27;20096;-71
2022/10/09 09:34:33;;;;;;;10.18;3.00;;;13.50;99.90;;;;;;5139094;27;20035;-71
2022/10/09 09:36:59;;;;;;;12.05;3.45;;;13.60;99.90;;;;;;5139100;27;20047;-71
2022/10/09 09:39:28;;;;;;;10.13;3.00;;;13.80;99.90;;;;;;5138939;27;20324;-71
2022/10/09 09:42:13;;;;;;;9.90;2.53;;;14.00;99.90;;;;;;5138927;27;20077;-70
2022/10/09 09:44:43;;;;;;;8.05;3.45;;;14.20;99.80;;;;;;5138543;27;20055;-71
2022/10/09 09:47:20;;;;;;;9.45;2.95;;;14.40;99.90;;;;;;5137429;27;20420;-73
2022/10/09 09:50:00;;;;;;;11.15;2.67;;;14.50;99.60;;;;;;5138147;27;20118;-73
2022/10/09 09:52:29;;;;;;;12.27;2.65;;;14.70;99.60;;;;;;5137515;27;20336;-73
2022/10/09 09:54:58;;;;;;;11.25;2.40;;;14.70;99.40;;;;;;5138682;27;20064;-73
2022/10/09 09:57:32;;;;;;;9.10;2.13;;;14.80;99.30;;;;;;5138640;27;20302;-75
2022/10/09 10:00:14;;;;;;;9.00;2.35;;;14.90;99.20;;;;;;5138660;27;20061;-71
2022/10/09 10:02:40;;;;;;;8.90;2.55;;;14.90;98.90;;;;;;5138272;27;20039;-71
2022/10/09 10:05:15;;;;;;;11.70;2.10;;;14.90;99.30;;;;;;5138468;27;20054;-72
2022/10/09 10:07:41;;;;;;;12.18;2.47;;;15.10;99.30;;;;;;5138294;27;20047;-72
2022/10/09 10:10:21;;;;;;;8.52;2.15;;;15.40;99.20;;;;;;5138333;27;20035;-72
2022/10/09 10:12:56;;;;;;;4.93;1.40;;;15.60;98.50;;;;;;5138323;27;20043;-72
2022/10/09 10:15:26;;;;;;;9.50;1.80;;;15.70;98.40;;;;;;5138300;27;20123;-72
2022/10/09 10:18:04;;;;;;;6.28;1.50;;;15.70;98.40;;;;;;5138227;27;20035;-72
2022/10/09 10:20:32;;;;;;;3.70;1.30;;;16.00;98.10;;;;;;5137939;27;20035;-72
2022/10/09 10:22:59;;;;;;;11.02;1.88;;;16.10;97.90;;;;;;5137804;27;20412;-72
2022/10/09 10:25:30;;;;;;;8.73;1.50;;;16.10;98.20;;;;;;5119696;27;20039;-72
2022/10/09 10:28:02;;;;;;;7.30;1.48;;;16.20;97.70;;;;;;5138031;27;20126;-72
2022/10/09 10:30:30;;;;;;;6.07;1.63;;;16.40;98.00;;;;;;5138021;27;20031;-72
2022/10/09 10:33:12;;;;;;;9.45;1.70;;;16.60;98.00;;;;;;5138056;27;20035;-72
2022/10/09 10:35:40;;;;;;;13.13;2.00;;;16.80;97.40;;;;;;5137755;27;20443;-76
2022/10/09 10:38:21;;;;;;;7.97;1.20;;;16.90;97.20;;;;;;5138079;27;20468;-72
2022/10/09 10:41:11;;;;;;;11.93;1.60;;;16.80;97.20;;;;;;5139219;27;20046;-74
2022/10/09 10:43:49;;;;;;;9.93;1.45;;;16.80;97.00;;;;;;5137527;27;20428;-72
2022/10/09 10:46:15;;;;;;;7.05;1.48;;;16.60;96.70;;;;;;5139756;27;20047;-74
2022/10/09 10:48:46;;;;;;;7.63;1.67;;;16.70;96.70;;;;;;5137493;27;20031;-73
2022/10/09 10:51:36;;;;;;;9.23;1.38;;;16.90;97.10;;;;;;5137865;27;20044;-73
2022/10/09 10:54:11;;;;;;;6.80;1.30;;;17.30;96.60;;;;;;5137872;28;20039;-74
2022/10/09 10:56:41;;;;;;;3.95;1.10;;;17.50;96.60;;;;;;5137900;27;20039;-73
2022/10/09 10:59:06;;;;;;;4.82;1.83;;;17.80;96.50;;;;;;5137478;27;20447;-72
2022/10/09 11:01:58;;;;;;;4.95;1.13;;;18.10;96.70;;;;;;5140124;28;20039;-70
2022/10/09 11:04:54;;;;;;;7.88;1.70;;;18.50;96.30;;;;;;5137908;27;20047;-71
2022/10/09 11:07:30;;;;;;;12.65;2.35;;;18.90;96.20;;;;;;5137415;27;20444;-70
2022/10/09 11:10:14;;;;;;;5.18;0.95;;;18.70;95.10;;;;;;5136684;28;20053;-71
2022/10/09 11:12:52;;;;;;;5.75;1.13;;;18.70;95.80;;;;;;5137662;28;20039;-69
2022/10/09 11:15:48;;;;;;;6.65;1.52;;;18.90;95.20;;;;;;5137326;27;20424;-67
2022/10/09 11:18:52;;;;;;;7.93;1.27;;;19.10;94.90;;;;;;5137184;27;20042;-67
2022/10/09 11:21:26;;;;;;;6.05;1.20;;;19.40;95.00;;;;;;5118211;27;20036;-67
2022/10/09 11:24:17;;;;;;;6.78;1.33;;;19.50;94.50;;;;;;5137326;27;20099;-68
2022/10/09 11:26:54;;;;;;;5.30;1.40;;;19.50;94.80;;;;;;5133481;28;20032;-77
2022/10/09 11:29:30;;;;;;;8.30;1.00;;;19.90;94.60;;;;;;5140237;27;20035;-68
2022/10/09 11:32:03;;;;;;;4.38;1.00;;;19.50;95.10;;;;;;5120970;27;20072;-72
2022/10/09 11:34:33;;;;;;;6.82;1.23;;;19.10;95.00;;;;;;5116641;28;20393;-71
2022/10/09 11:37:02;;;;;;;6.15;1.20;;;18.80;94.90;;;;;;5116866;28;20039;-71
2022/10/09 11:39:32;;;;;;;2.72;0.90;;;18.90;95.30;;;;;;5116835;28;20043;-71
2022/10/09 11:41:59;;;;;;;6.18;1.10;;;19.40;95.70;;;;;;5116823;28;20040;-66
2022/10/09 11:44:39;;;;;;;5.90;0.98;;;19.10;94.20;;;;;;5116394;28;20063;-66
2022/10/09 11:47:18;;;;;;;7.18;1.38;;;19.10;94.70;;;;;;5149889;27;20047;-66
2022/10/09 11:50:13;;;;;;;4.68;0.90;;;19.40;94.90;;;;;;5116076;28;20035;-66
2022/10/09 11:53:02;;;;;;;3.72;0.90;;;19.90;94.70;;;;;;5118690;28;20114;-66
2022/10/09 11:55:31;;;;;;;5.90;1.35;;;19.90;94.30;;;;;;5120505;28;20374;-66
2022/10/09 11:58:19;;;;;;;5.80;1.20;;;20.20;94.80;;;;;;5120365;28;20040;-66
2022/10/09 12:00:49;;;;;;;10.38;1.35;;;20.30;94.10;;;;;;5120371;28;20050;-66
2022/10/09 12:03:35;;;;;;;6.53;0.90;;;20.20;94.00;;;;;;5119343;28;20089;-66
2022/10/09 12:06:14;;;;;;;6.60;1.17;;;20.40;93.80;;;;;;5120219;28;20298;-66
2022/10/09 12:09:02;;;;;;;5.45;1.00;;;20.60;93.80;;;;;;5119187;28;20085;-67
2022/10/09 12:11:29;;;;;;;7.72;1.35;;;21.00;94.00;;;;;;5120142;28;20122;-67
2022/10/09 12:13:58;;;;;;;7.57;1.40;;;21.40;93.10;;;;;;5120079;28;20324;-67
2022/10/09 12:16:40;;;;;;;8.13;1.13;;;21.50;92.80;;;;;;5120019;27;20096;-67
2022/10/09 12:19:23;;;;;;;5.53;1.05;;;21.80;93.90;;;;;;5119647;28;20035;-67
2022/10/09 12:21:55;;;;;;;7.82;1.05;;;22.00;93.10;;;;;;5119972;28;20335;-67
2022/10/09 12:24:29;;;;;;;5.22;0.90;;;21.90;92.60;;;;;;5119970;28;20071;-68
2022/10/09 12:26:58;;;;;;;5.20;0.88;;;22.00;93.20;;;;;;5120671;28;20039;-70
2022/10/09 12:29:38;;;;;;;5.15;1.30;;;22.10;92.60;;;;;;5119869;28;20148;-70
2022/10/09 12:32:14;;;;;;;7.70;1.50;;;22.10;91.80;;;;;;5119811;28;20036;-70
2022/10/09 12:34:48;;;;;;;5.60;1.50;;;21.70;92.00;;;;;;5119802;28;20318;-70
2022/10/09 12:37:20;;;;;;;3.92;1.17;;;21.90;92.30;;;;;;5118703;28;20100;-69
2022/10/09 12:39:47;;;;;;;7.30;1.60;;;22.20;92.40;;;;;;5119305;28;20050;-70
2022/10/09 12:42:31;;;;;;;5.28;0.90;;;22.40;92.30;;;;;;5152723;27;20048;-77
2022/10/09 12:44:56;;;;;;;7.22;1.20;;;22.50;92.30;;;;;;5152396;27;20517;-73
2022/10/09 12:47:26;;;;;;;6.40;1.17;;;22.20;91.60;;;;;;5118147;28;20032;-72
2022/10/09 12:50:23;;;;;;;6.95;1.55;;;21.80;92.00;;;;;;5119078;28;20301;-72
2022/10/09 12:52:53;;;;;;;;;;;21.40;92.10;;;;;;5119636;28;20050;-71
2022/10/09 12:55:31;;;;;;;3.67;1.25;;;21.20;92.10;;;;;;5119321;28;19922;-70
2022/10/09 12:58:05;;;;;;;5.55;1.35;;;21.40;92.30;;;;;;5119011;28;20044;-69
2022/10/09 13:00:32;;;;;;;4.47;0.93;;;21.60;92.20;;;;;;5119293;28;20036;-71
2022/10/09 13:02:57;;;;;;;5.25;1.38;;;21.80;92.00;;;;;;5118780;28;20063;-71